Thunder radar more information blitzortung!


avis per Snow/Ice more information rain snow radar


Visita la nostra xarxa de llocs de meteo:

Template documentation
and downloads

And another site



Snow/Ice From: 26-02-2018 12:00 Until: 27-02-2018 05:59 warning for: Snow/Ice Level: Yellow info button

Pagina Historial Weather Underground text

Diari Resum January 4, 2018 Unitats:  Imperial    Mètric   Tant
« Previous Dia
SegĂźent Dia »
Diari Setmana Mensual Anual Personalitzada
  Maxima: Minima: Media:
Temperatura: TemperatureC °F 10.6 °F 17.3 °F
Punt de rosada: DewpointC °F 2.2 °F 7 °F
Humitat: Humidity % 43 % 51 %
Wind Speed: WindSpeedKMH mph 0.0 mph 10.2 mph
RĂ fegues de vent: WindSpeedGustKMH mph - -
Vent:- - WSW
Pression baro: PressurehPa in 1012.8 in -
Precipitacions: 0.0 in    
Historical Graphs
 
 
Dades de taula per January 4, 2018
Temps Temperatura Punt de rosada Pression baro Vent Wind Speed RĂ fegues de vent Humitat Rainfall Rate (Hourly)
TemperatureC °F DewpointC °F PressurehPa in Calm     Humidity % HourlyPrecipMM in
00:00 15.7 °F 9.1 °F 1018.8 in West 11.3 mph 12.9 mph 65 % 0.0 in
00:01 15.7 °F 8.7 °F 1021.9 in WSW 11.1 mph 11.1 mph 63 % 0.0 in
00:04 15.7 °F 8.7 °F 1021.9 in WSW 9.0 mph 9.0 mph 63 % 0.0 in
00:10 15.6 °F 9.1 °F 1019.9 in West 9.7 mph 12.9 mph 65 % 0.0 in
00:20 15.6 °F 9.1 °F 1019.9 in West 4.8 mph 9.7 mph 65 % 0.0 in
00:30 15.6 °F 9.1 °F 1019.9 in West 4.8 mph 9.7 mph 65 % 0.0 in
00:40 15.5 °F 8.9 °F 1019.9 in West 8.0 mph 9.7 mph 65 % 0.0 in
01:00 15.3 °F 8.8 °F 1019.9 in West 4.8 mph 6.4 mph 65 % 0.0 in
01:20 15.2 °F 8.7 °F 1018.8 in WNW 9.7 mph 11.3 mph 65 % 0.0 in
01:30 15.2 °F 8.9 °F 1018.8 in WSW 3.2 mph 9.7 mph 66 % 0.0 in
01:40 15.2 °F 8.9 °F 1019.9 in West 4.8 mph 9.7 mph 66 % 0.0 in
01:50 15.1 °F 8.8 °F 1018.8 in WNW 3.2 mph 6.4 mph 66 % 0.0 in
02:00 15.0 °F 8.4 °F 1018.8 in WNW 3.2 mph 8.0 mph 65 % 0.0 in
02:10 14.8 °F 8.5 °F 1019.9 in West 1.6 mph 4.8 mph 66 % 0.0 in
02:20 14.7 °F 8.4 °F 1019.9 in WNW 1.6 mph 6.4 mph 66 % 0.0 in
02:30 14.6 °F 8.3 °F 1019.9 in WNW 1.6 mph 4.8 mph 66 % 0.0 in
02:40 14.6 °F 8.3 °F 1019.9 in West 3.2 mph 6.4 mph 66 % 0.0 in
02:50 14.6 °F 8.3 °F 1019.9 in West 4.8 mph 4.8 mph 66 % 0.0 in
03:10 15.0 °F 8.7 °F 1020.9 in WSW 3.2 mph 4.8 mph 66 % 0.0 in
03:30 15.7 °F 9.1 °F 1020.9 in West 3.2 mph 6.4 mph 65 % 0.0 in
03:50 16.0 °F 9.2 °F 1020.9 in SW 8.0 mph 9.7 mph 64 % 0.0 in
04:00 16.2 °F 9.4 °F 1020.9 in SW 3.2 mph 9.7 mph 64 % 0.0 in
10:06 16.7 °F 9.6 °F 1020.9 in ENE 13.0 mph 13.0 mph 63 % 0.0 in
10:07 16.7 °F 9.6 °F 1020.9 in NW 13.0 mph 13.0 mph 63 % 0.0 in
10:08 16.7 °F 9.6 °F 1020.9 in NNW 13.0 mph 13.0 mph 63 % 0.0 in
10:09 16.7 °F 9.6 °F 1020.9 in NE 5.6 mph 5.6 mph 63 % 0.0 in
10:14 16.8 °F 9.7 °F 1020.9 in NNE 4.2 mph 4.2 mph 63 % 0.0 in
10:15 16.6 °F 9.3 °F 1020.9 in NE 3.7 mph 3.7 mph 62 % 0.0 in
10:20 16.3 °F 9.0 °F 1020.9 in NNE 7.4 mph 7.4 mph 62 % 0.0 in
10:23 16.3 °F 9.0 °F 1020.9 in NE 5.6 mph 5.6 mph 62 % 0.0 in
10:28 16.6 °F 9.3 °F 1020.9 in NE 5.6 mph 5.6 mph 62 % 0.0 in
10:30 16.7 °F 9.4 °F 1020.9 in West 10.3 mph 10.3 mph 62 % 0.0 in
10:35 17.1 °F 9.5 °F 1020.9 in SSW 9.3 mph 9.3 mph 61 % 0.0 in
10:37 17.2 °F 9.6 °F 1020.9 in WNW 7.4 mph 7.4 mph 61 % 0.0 in
10:42 17.4 °F 9.6 °F 1020.9 in WSW 13.0 mph 13.0 mph 60 % 0.0 in
10:47 17.6 °F 9.7 °F 1020.9 in WSW 7.4 mph 7.4 mph 60 % 0.0 in
10:50 17.7 °F 9.6 °F 1020.9 in WSW 13.0 mph 13.0 mph 59 % 0.0 in
10:51 17.7 °F 9.6 °F 1020.9 in NW 14.8 mph 14.8 mph 59 % 0.0 in
10:55 17.7 °F 9.3 °F 1021.9 in WSW 20.4 mph 20.4 mph 58 % 0.0 in
10:57 17.8 °F 9.4 °F 1021.9 in WNW 13.0 mph 13.0 mph 58 % 0.0 in
11:02 18.0 °F 9.6 °F 1021.9 in West 22.2 mph 22.2 mph 58 % 0.0 in
11:05 18.0 °F 9.3 °F 1021.9 in West 9.7 mph 22.5 mph 57 % 0.0 in
11:10 18.1 °F 9.2 °F 1021.9 in WSW 22.2 mph 22.2 mph 56 % 0.0 in
11:11 18.1 °F 9.2 °F 1021.9 in WSW 22.2 mph 22.2 mph 56 % 0.0 in
11:16 18.2 °F 9.0 °F 1021.9 in WSW 9.3 mph 9.3 mph 55 % 0.0 in
11:20 18.2 °F 9.0 °F 1021.9 in WSW 13.0 mph 13.0 mph 55 % 0.0 in
11:25 18.3 °F 8.8 °F 1019.9 in West 13.0 mph 13.0 mph 54 % 0.0 in
11:30 18.5 °F 9.0 °F 1019.9 in West 7.4 mph 7.4 mph 54 % 0.0 in
11:35 18.6 °F 9.1 °F 1019.9 in NNE 6.1 mph 6.1 mph 54 % 0.0 in
11:40 18.9 °F 9.4 °F 1019.9 in ENE 7.9 mph 7.9 mph 54 % 0.0 in
11:41 18.9 °F 9.4 °F 1019.9 in WSW 7.4 mph 7.4 mph 54 % 0.0 in
11:44 19.0 °F 9.2 °F 1019.9 in SSW 5.6 mph 5.6 mph 53 % 0.0 in
11:46 19.0 °F 9.2 °F 1019.9 in NW 16.4 mph 16.4 mph 53 % 0.0 in
11:51 19.0 °F 9.2 °F 1019.9 in North 9.3 mph 9.3 mph 53 % 0.0 in
11:54 19.0 °F 8.9 °F 1019.9 in SW 16.7 mph 16.7 mph 52 % 0.0 in
11:56 19.0 °F 8.9 °F 1019.9 in WNW 11.9 mph 11.9 mph 52 % 0.0 in
12:01 19.0 °F 8.6 °F 1019.9 in WSW 16.7 mph 16.7 mph 51 % 0.0 in
12:06 19.1 °F 8.7 °F 1019.9 in WNW 16.7 mph 16.7 mph 51 % 0.0 in
12:07 19.1 °F 8.7 °F 1019.9 in SW 16.7 mph 16.7 mph 51 % 0.0 in
12:08 19.1 °F 8.7 °F 1019.9 in SW 14.8 mph 14.8 mph 51 % 0.0 in
12:13 19.0 °F 8.6 °F 1019.9 in West 24.1 mph 24.1 mph 51 % 0.0 in
12:15 18.9 °F 8.6 °F 1019.9 in West 27.8 mph 27.8 mph 51 % 0.0 in
12:16 18.9 °F 8.6 °F 1019.9 in West 35.2 mph 35.2 mph 51 % 0.0 in
12:20 19.0 °F 8.6 °F 1019.9 in West 16.7 mph 16.7 mph 51 % 0.0 in
12:25 19.1 °F 8.4 °F 1018.8 in WSW 24.5 mph 24.5 mph 50 % 0.0 in
12:26 19.1 °F 8.4 °F 1018.8 in West 14.8 mph 16.1 mph 50 % 0.0 in
12:28 19.1 °F 8.4 °F 1018.8 in West 11.9 mph 11.9 mph 50 % 0.0 in
12:31 19.2 °F 8.5 °F 1018.8 in WSW 24.1 mph 24.1 mph 50 % 0.0 in
12:36 19.2 °F 8.5 °F 1018.8 in WSW 20.4 mph 20.4 mph 50 % 0.0 in
12:41 19.2 °F 8.5 °F 1018.8 in WNW 18.5 mph 18.5 mph 50 % 0.0 in
12:42 19.2 °F 8.5 °F 1018.8 in WSW 9.3 mph 9.3 mph 50 % 0.0 in
12:43 19.4 °F 8.7 °F 1018.8 in SW 13.0 mph 13.0 mph 50 % 0.0 in
12:47 19.5 °F 8.8 °F 1018.8 in WSW 19.8 mph 19.8 mph 50 % 0.0 in
12:50 19.5 °F 8.8 °F 1018.8 in West 20.4 mph 20.4 mph 50 % 0.0 in
12:53 19.6 °F 8.9 °F 1017.8 in WSW 16.7 mph 16.7 mph 50 % 0.0 in
12:58 19.9 °F 9.2 °F 1017.8 in West 12.6 mph 12.6 mph 50 % 0.0 in
13:03 19.9 °F 8.9 °F 1017.8 in WSW 20.4 mph 20.4 mph 49 % 0.0 in
13:08 19.8 °F 8.8 °F 1017.8 in West 29.6 mph 29.6 mph 49 % 0.0 in
13:13 19.9 °F 8.9 °F 1017.8 in WSW 20.4 mph 20.4 mph 49 % 0.0 in
13:17 19.8 °F 8.8 °F 1017.8 in West 31.5 mph 31.5 mph 49 % 0.0 in
13:22 19.9 °F 8.9 °F 1017.8 in West 18.5 mph 18.5 mph 49 % 0.0 in
13:23 19.9 °F 8.9 °F 1017.8 in West 18.5 mph 18.5 mph 49 % 0.0 in
13:28 19.9 °F 8.9 °F 1017.8 in West 16.7 mph 16.7 mph 49 % 0.0 in
13:33 20.0 °F 8.9 °F 1017.8 in SW 16.7 mph 16.7 mph 49 % 0.0 in
13:36 19.9 °F 8.9 °F 1017.8 in WSW 33.3 mph 33.3 mph 49 % 0.0 in
13:37 19.8 °F 8.8 °F 1017.8 in WSW 33.3 mph 33.3 mph 49 % 0.0 in
13:38 20.0 °F 8.9 °F 1017.8 in West 14.8 mph 14.8 mph 49 % 0.0 in
13:43 20.0 °F 8.9 °F 1017.8 in WSW 18.5 mph 18.5 mph 49 % 0.0 in
13:44 20.0 °F 8.9 °F 1017.8 in WSW 16.7 mph 16.7 mph 49 % 0.0 in
13:48 19.9 °F 8.9 °F 1017.8 in WSW 22.2 mph 22.2 mph 49 % 0.0 in
13:49 19.8 °F 8.8 °F 1017.8 in West 31.5 mph 31.5 mph 49 % 0.0 in
13:50 19.8 °F 8.8 °F 1017.8 in WSW 31.5 mph 31.5 mph 49 % 0.0 in
13:53 19.8 °F 8.8 °F 1017.8 in WSW 16.7 mph 16.7 mph 49 % 0.0 in
13:54 19.8 °F 8.8 °F 1017.8 in West 14.8 mph 14.8 mph 49 % 0.0 in
13:55 19.8 °F 8.8 °F 1017.8 in WSW 18.5 mph 18.5 mph 49 % 0.0 in
14:00 19.9 °F 8.9 °F 1017.8 in SW 16.7 mph 16.7 mph 49 % 0.0 in
14:01 19.9 °F 8.9 °F 1017.8 in West 20.9 mph 20.9 mph 49 % 0.0 in
14:06 19.9 °F 8.9 °F 1017.8 in West 11.9 mph 11.9 mph 49 % 0.0 in
14:07 19.9 °F 8.9 °F 1017.8 in West 11.9 mph 11.9 mph 49 % 0.0 in
14:12 19.9 °F 8.6 °F 1017.8 in WSW 16.7 mph 16.7 mph 48 % 0.0 in
14:15 19.9 °F 8.6 °F 1017.8 in WSW 18.5 mph 18.5 mph 48 % 0.0 in
14:20 20.0 °F 8.7 °F 1017.8 in West 14.5 mph 20.9 mph 48 % 0.0 in
14:24 20.0 °F 8.3 °F 1017.8 in WNW 13.0 mph 13.0 mph 47 % 0.0 in
14:26 20.2 °F 8.8 °F 1017.8 in WNW 14.8 mph 14.8 mph 48 % 0.0 in
14:27 20.2 °F 8.8 °F 1017.8 in WSW 14.8 mph 14.8 mph 48 % 0.0 in
14:32 20.3 °F 8.6 °F 1017.8 in WSW 13.0 mph 13.0 mph 47 % 0.0 in
14:35 20.4 °F 8.7 °F 1017.8 in SW 16.9 mph 16.9 mph 47 % 0.0 in
14:40 20.5 °F 8.8 °F 1017.8 in West 18.0 mph 18.0 mph 47 % 0.0 in
14:41 20.5 °F 8.8 °F 1017.8 in West 18.5 mph 18.5 mph 47 % 0.0 in
14:42 20.5 °F 8.8 °F 1017.8 in West 18.5 mph 18.5 mph 47 % 0.0 in
14:46 20.6 °F 8.9 °F 1017.8 in West 13.0 mph 13.0 mph 47 % 0.0 in
14:47 20.6 °F 8.9 °F 1017.8 in WNW 13.0 mph 13.0 mph 47 % 0.0 in
14:52 20.5 °F 8.5 °F 1017.8 in WNW 9.3 mph 9.3 mph 46 % 0.0 in
14:57 20.7 °F 8.7 °F 1017.8 in West 11.1 mph 11.1 mph 46 % 0.0 in
15:00 20.8 °F 8.8 °F 1017.8 in West 16.1 mph 16.1 mph 46 % 0.0 in
15:01 20.9 °F 8.8 °F 1017.8 in West 16.7 mph 16.7 mph 46 % 0.0 in
15:07 20.9 °F 8.5 °F 1017.8 in West 24.1 mph 24.1 mph 45 % 0.0 in
15:12 20.8 °F 8.4 °F 1017.8 in West 13.0 mph 13.0 mph 45 % 0.0 in
15:13 20.8 °F 8.1 °F 1017.8 in WSW 16.7 mph 16.7 mph 44 % 0.0 in
15:15 20.8 °F 8.1 °F 1017.8 in WNW 14.8 mph 14.8 mph 44 % 0.0 in
15:16 20.9 °F 8.2 °F 1017.8 in WSW 13.0 mph 13.0 mph 44 % 0.0 in
15:21 20.8 °F 8.1 °F 1017.8 in WSW 24.1 mph 24.1 mph 44 % 0.0 in
15:22 20.8 °F 8.1 °F 1017.8 in WSW 24.1 mph 24.1 mph 44 % 0.0 in
15:25 20.8 °F 8.1 °F 1017.8 in WNW 9.3 mph 10.0 mph 44 % 0.0 in
15:28 20.8 °F 8.1 °F 1017.8 in WSW 13.0 mph 13.0 mph 44 % 0.0 in
15:35 20.7 °F 8.0 °F 1017.8 in West 18.5 mph 18.5 mph 44 % 0.0 in
15:38 20.6 °F 7.6 °F 1017.8 in WNW 24.1 mph 24.1 mph 43 % 0.0 in
15:43 20.6 °F 7.9 °F 1017.8 in West 11.1 mph 11.1 mph 44 % 0.0 in
15:45 20.6 °F 7.9 °F 1017.8 in WNW 14.8 mph 14.8 mph 44 % 0.0 in
15:49 20.5 °F 7.8 °F 1017.8 in West 9.5 mph 9.5 mph 44 % 0.0 in
15:50 20.5 °F 7.8 °F 1017.8 in SW 9.5 mph 9.5 mph 44 % 0.0 in
15:51 20.6 °F 7.9 °F 1017.8 in NW 20.1 mph 20.1 mph 44 % 0.0 in
15:56 20.5 °F 7.8 °F 1017.8 in West 9.3 mph 9.7 mph 44 % 0.0 in
16:05 20.4 °F 7.4 °F 1017.8 in ENE 20.4 mph 20.4 mph 43 % 0.0 in
16:07 20.3 °F 7.3 °F 1017.8 in WSW 14.0 mph 14.0 mph 43 % 0.0 in
16:12 20.0 °F 7.4 °F 1017.8 in NW 11.1 mph 11.1 mph 44 % 0.0 in
16:14 20.0 °F 7.4 °F 1017.8 in West 5.8 mph 5.8 mph 44 % 0.0 in
16:18 19.9 °F 7.3 °F 1017.8 in West 9.3 mph 9.3 mph 44 % 0.0 in
16:20 19.8 °F 7.2 °F 1017.8 in West 9.3 mph 9.3 mph 44 % 0.0 in
16:25 19.7 °F 7.1 °F 1017.8 in WSW 10.3 mph 10.3 mph 44 % 0.0 in
16:26 19.7 °F 7.1 °F 1017.8 in WNW 9.3 mph 9.3 mph 44 % 0.0 in
16:27 19.8 °F 7.2 °F 1017.8 in WSW 13.0 mph 13.0 mph 44 % 0.0 in
16:32 19.9 °F 7.3 °F 1017.8 in West 11.1 mph 11.1 mph 44 % 0.0 in
16:37 19.9 °F 7.3 °F 1017.8 in WSW 11.9 mph 11.9 mph 44 % 0.0 in
16:42 19.9 °F 7.3 °F 1017.8 in SW 11.1 mph 11.1 mph 44 % 0.0 in
16:47 19.8 °F 7.2 °F 1017.8 in WNW 7.4 mph 7.4 mph 44 % 0.0 in
16:49 19.8 °F 7.2 °F 1017.8 in SSW 16.7 mph 16.7 mph 44 % 0.0 in
16:52 19.7 °F 7.1 °F 1017.8 in West 7.4 mph 7.4 mph 44 % 0.0 in
16:53 19.6 °F 7.0 °F 1017.8 in WSW 14.0 mph 14.0 mph 44 % 0.0 in
16:54 19.6 °F 7.0 °F 1017.8 in West 14.8 mph 14.8 mph 44 % 0.0 in
16:59 19.3 °F 6.7 °F 1017.8 in SW 12.2 mph 12.2 mph 44 % 0.0 in
17:01 19.2 °F 6.7 °F 1017.8 in West 13.0 mph 13.0 mph 44 % 0.0 in
17:05 19.1 °F 6.6 °F 1017.8 in WSW 6.1 mph 6.1 mph 44 % 0.0 in
17:08 19.1 °F 6.9 °F 1017.8 in SW 11.1 mph 11.1 mph 45 % 0.0 in
17:13 19.0 °F 6.8 °F 1017.8 in WSW 9.7 mph 9.7 mph 45 % 0.0 in
17:18 18.8 °F 6.9 °F 1017.8 in West 5.6 mph 5.6 mph 46 % 0.0 in
17:22 18.7 °F 6.8 °F 1017.8 in WSW 5.6 mph 5.6 mph 46 % 0.0 in
17:23 18.7 °F 6.8 °F 1017.8 in NW 3.7 mph 3.7 mph 46 % 0.0 in
17:27 18.6 °F 6.7 °F 1017.8 in West 17.2 mph 17.2 mph 46 % 0.0 in
17:30 18.4 °F 6.6 °F 1017.8 in WSW 11.1 mph 11.1 mph 46 % 0.0 in
17:31 18.4 °F 6.6 °F 1017.8 in WSW 11.1 mph 11.1 mph 46 % 0.0 in
17:32 18.4 °F 6.6 °F 1017.8 in WSW 7.9 mph 7.9 mph 46 % 0.0 in
17:37 18.3 °F 6.5 °F 1017.8 in WSW 3.7 mph 3.7 mph 46 % 0.0 in
17:38 18.2 °F 6.4 °F 1017.8 in West 3.7 mph 3.7 mph 46 % 0.0 in
17:43 18.1 °F 6.3 °F 1017.8 in NNW 4.2 mph 4.2 mph 46 % 0.0 in
17:45 18.0 °F 6.2 °F 1017.8 in West 4.2 mph 4.2 mph 46 % 0.0 in
17:46 18.0 °F 6.2 °F 1017.8 in WNW 7.4 mph 7.4 mph 46 % 0.0 in
17:51 18.0 °F 6.5 °F 1017.8 in NW 7.4 mph 7.4 mph 47 % 0.0 in
17:53 18.0 °F 6.5 °F 1017.8 in NW 9.3 mph 9.3 mph 47 % 0.0 in
17:55 17.9 °F 6.4 °F 1017.8 in West 3.7 mph 3.7 mph 47 % 0.0 in
17:57 17.8 °F 6.3 °F 1017.8 in WNW 9.3 mph 9.3 mph 47 % 0.0 in
17:59 17.8 °F 6.3 °F 1017.8 in NNW 5.6 mph 5.6 mph 47 % 0.0 in
18:04 17.7 °F 6.2 °F 1017.8 in WNW 3.7 mph 3.7 mph 47 % 0.0 in
18:05 17.7 °F 6.2 °F 1017.8 in WNW 7.4 mph 7.4 mph 47 % 0.0 in
18:10 17.6 °F 6.2 °F 1017.8 in WSW 9.3 mph 9.3 mph 47 % 0.0 in
18:11 17.6 °F 6.2 °F 1017.8 in WSW 9.3 mph 9.3 mph 47 % 0.0 in
18:16 17.6 °F 6.2 °F 1017.8 in NW 5.6 mph 5.6 mph 47 % 0.0 in
18:18 17.5 °F 6.1 °F 1017.8 in WSW 5.0 mph 5.0 mph 47 % 0.0 in
18:20 14.1 °F 4.1 °F 1017.8 in WSW 4.8 mph 6.4 mph 51 % 0.0 in
18:21 17.6 °F 6.2 °F 1017.8 in SW 6.1 mph 7.9 mph 47 % 0.0 in
18:22 17.6 °F 6.2 °F 1017.8 in WSW 16.7 mph 16.7 mph 47 % 0.0 in
18:27 17.5 °F 6.1 °F 1017.8 in WSW 3.7 mph 3.7 mph 47 % 0.0 in
18:28 17.5 °F 6.1 °F 1017.8 in NW 4.7 mph 4.7 mph 47 % 0.0 in
18:32 17.4 °F 5.9 °F 1017.8 in NW 1.9 mph   47 % 0.0 in
18:36 17.2 °F 6.1 °F 1017.8 in NNW 7.4 mph 7.4 mph 48 % 0.0 in
18:40 13.5 °F 3.6 °F 1016.8 in WSW 3.2 mph 4.8 mph 51 % 0.0 in
18:41 17.2 °F 6.1 °F 1017.8 in SE 5.6 mph 5.6 mph 48 % 0.0 in
18:46 17.0 °F 5.9 °F 1017.8 in SW 5.6 mph 5.6 mph 48 % 0.0 in
18:50 17.1 °F 6.0 °F 1017.8 in ESE 13.0 mph 13.0 mph 48 % 0.0 in
18:55 17.1 °F 6.0 °F 1018.8 in ESE 6.1 mph 6.1 mph 48 % 0.0 in
18:59 17.1 °F 6.0 °F 1018.8 in ESE 9.3 mph 9.3 mph 48 % 0.0 in
19:00 13.3 °F 3.4 °F 1016.8 in West 4.8 mph 6.4 mph 51 % 0.0 in
19:03 16.9 °F 6.1 °F 1018.8 in SE 3.7 mph 3.7 mph 49 % 0.0 in
19:08 16.7 °F 5.9 °F 1017.8 in Calm     49 % 0.0 in
19:10 16.7 °F 6.2 °F 1017.8 in NNE 3.7 mph 3.9 mph 50 % 0.0 in
19:16 16.6 °F 6.1 °F 1017.8 in ESE 7.2 mph 7.2 mph 50 % 0.0 in
19:20 13.3 °F 3.4 °F 1014.8 in WSW 3.2 mph 4.8 mph 51 % 0.0 in
19:21 16.8 °F 6.3 °F 1018.8 in East 3.7 mph 3.7 mph 50 % 0.0 in
19:23 16.8 °F 6.3 °F 1018.8 in SSE 5.6 mph 5.6 mph 50 % 0.0 in
19:28 16.6 °F 6.1 °F 1018.8 in ESE 5.0 mph 5.0 mph 50 % 0.0 in
19:30 16.6 °F 6.1 °F 1018.8 in SSE 5.6 mph 5.6 mph 50 % 0.0 in
19:35 16.8 °F 6.3 °F 1018.8 in West 6.4 mph 6.4 mph 50 % 0.0 in
19:38 16.8 °F 6.3 °F 1018.8 in South 7.4 mph 7.4 mph 50 % 0.0 in
19:43 16.6 °F 6.1 °F 1018.8 in SE 7.4 mph 7.4 mph 50 % 0.0 in
19:48 16.5 °F 6.1 °F 1018.8 in SW 1.9 mph 1.9 mph 50 % 0.0 in
19:50 13.0 °F 3.4 °F 1015.8 in WSW 1.6 mph 8.0 mph 52 % 0.0 in
19:53 16.3 °F 5.8 °F 1018.8 in SW 3.7 mph 3.7 mph 50 % 0.0 in
19:59 16.3 °F 6.1 °F 1018.8 in SE 5.6 mph 5.6 mph 51 % 0.0 in
20:00 16.3 °F 6.1 °F 1018.8 in SW 3.9 mph 3.9 mph 51 % 0.0 in
20:01 16.3 °F 6.1 °F 1018.8 in SSW 3.7 mph 4.2 mph 51 % 0.0 in
20:06 16.0 °F 5.8 °F 1018.8 in ESE 5.8 mph 5.8 mph 51 % 0.0 in
20:10 16.1 °F 5.9 °F 1018.8 in West 3.7 mph 3.7 mph 51 % 0.0 in
20:15 16.1 °F 5.9 °F 1018.8 in WNW 5.6 mph 5.6 mph 51 % 0.0 in
20:18 16.1 °F 5.9 °F 1018.8 in WSW 3.7 mph 3.7 mph 51 % 0.0 in
20:19 16.0 °F 5.8 °F 1018.8 in SW 3.7 mph 3.7 mph 51 % 0.0 in
20:23 15.8 °F 5.7 °F 1018.8 in SE 3.2 mph   51 % 0.0 in
20:24 15.7 °F 5.6 °F 1018.8 in SE 3.7 mph 3.7 mph 51 % 0.0 in
20:29 16.0 °F 5.8 °F 1018.8 in SW 3.9 mph 3.9 mph 51 % 0.0 in
20:33 15.8 °F 5.7 °F 1018.8 in WSW 3.7 mph   51 % 0.0 in
20:35 15.9 °F 5.8 °F 1018.8 in ESE 3.7 mph 3.7 mph 51 % 0.0 in
20:40 16.1 °F 5.9 °F 1017.8 in SW 2.3 mph   51 % 0.0 in
20:43 15.8 °F 5.7 °F 1017.8 in SW 3.7 mph 3.7 mph 51 % 0.0 in
20:44 15.7 °F 5.6 °F 1017.8 in SW 3.7 mph 3.7 mph 51 % 0.0 in
20:49 15.5 °F 5.4 °F 1017.8 in WNW 3.9 mph 3.9 mph 51 % 0.0 in
20:50 15.5 °F 5.4 °F 1017.8 in WNW 3.7 mph 3.9 mph 51 % 0.0 in
20:56 15.5 °F 5.4 °F 1017.8 in West 3.7 mph 3.7 mph 51 % 0.0 in
21:00 11.6 °F 2.3 °F 1014.8 in SW 3.2 mph 4.8 mph 53 % 0.0 in
21:01 15.3 °F 5.5 °F 1017.8 in West 3.7 mph 3.7 mph 52 % 0.0 in
21:02 15.3 °F 5.5 °F 1017.8 in WNW 3.7 mph 3.7 mph 52 % 0.0 in
21:06 15.2 °F 5.4 °F 1017.8 in NNW 5.6 mph 5.6 mph 52 % 0.0 in
21:10 11.6 °F 2.3 °F 1014.8 in SW 1.6 mph 4.8 mph 53 % 0.0 in
21:11 15.2 °F 5.4 °F 1017.8 in WNW 3.7 mph 3.7 mph 52 % 0.0 in
21:16 15.3 °F 5.5 °F 1017.8 in West 5.6 mph 5.6 mph 52 % 0.0 in
21:17 15.3 °F 5.5 °F 1017.8 in WSW 5.6 mph 5.6 mph 52 % 0.0 in
21:20 15.2 °F 5.4 °F 1017.8 in NW 3.7 mph 3.7 mph 52 % 0.0 in
21:25 15.1 °F 5.3 °F 1017.8 in WNW 3.9 mph 3.9 mph 52 % 0.0 in
21:27 15.1 °F 5.3 °F 1017.8 in WNW 4.7 mph 4.7 mph 52 % 0.0 in
21:32 15.2 °F 5.4 °F 1017.8 in WNW 3.7 mph 3.7 mph 52 % 0.0 in
21:33 15.2 °F 5.4 °F 1017.8 in NW 3.7 mph 3.7 mph 52 % 0.0 in
21:38 15.2 °F 5.4 °F 1017.8 in WNW 5.6 mph 5.6 mph 52 % 0.0 in
21:40 11.2 °F 2.2 °F 1013.8 in Calm   3.2 mph 54 % 0.0 in
21:43 15.3 °F 5.5 °F 1017.8 in West 3.9 mph 3.9 mph 52 % 0.0 in
21:47 15.4 °F 5.6 °F 1017.8 in WNW 5.6 mph 5.6 mph 52 % 0.0 in
21:50 11.2 °F 2.2 °F 1014.8 in WSW 1.6 mph 3.2 mph 54 % 0.0 in
21:52 15.3 °F 5.8 °F 1017.8 in WSW 8.7 mph 8.7 mph 53 % 0.0 in
21:54 15.3 °F 5.8 °F 1017.8 in WSW 5.0 mph 5.0 mph 53 % 0.0 in
21:55 15.4 °F 5.9 °F 1017.8 in NW 9.3 mph 9.3 mph 53 % 0.0 in
21:59 15.3 °F 5.8 °F 1017.8 in West 3.7 mph 3.7 mph 53 % 0.0 in
22:00 11.5 °F 2.5 °F 1014.8 in WSW 4.8 mph 6.4 mph 54 % 0.0 in
22:06 15.4 °F 5.6 °F 1018.8 in WNW 3.9 mph 3.9 mph 52 % 0.0 in
22:09 15.4 °F 5.6 °F 1018.8 in NW 6.1 mph 6.1 mph 52 % 0.0 in
22:10 11.7 °F 2.7 °F 1013.8 in WSW 3.2 mph 6.4 mph 54 % 0.0 in
22:14 15.4 °F 5.6 °F 1018.8 in West 8.7 mph 8.7 mph 52 % 0.0 in
22:17 15.4 °F 5.6 °F 1018.8 in WSW 7.4 mph 7.4 mph 52 % 0.0 in
22:20 11.9 °F 2.9 °F 1013.8 in WSW 4.8 mph 9.7 mph 54 % 0.0 in
22:26 15.2 °F 5.4 °F 1017.8 in WSW 5.6 mph 5.6 mph 52 % 0.0 in
22:28 15.2 °F 5.4 °F 1017.8 in WSW 7.4 mph 7.4 mph 52 % 0.0 in
22:30 15.1 °F 5.3 °F 1017.8 in NW 5.6 mph 5.6 mph 52 % 0.0 in
22:32 15.1 °F 5.3 °F 1017.8 in WNW 9.3 mph 9.3 mph 52 % 0.0 in
22:33 15.1 °F 5.3 °F 1017.8 in NW 9.3 mph 9.3 mph 52 % 0.0 in
22:34 15.1 °F 5.3 °F 1017.8 in West 7.4 mph 7.4 mph 52 % 0.0 in
22:40 11.2 °F 2.2 °F 1013.8 in SW 4.8 mph 6.4 mph 54 % 0.0 in
22:43 15.0 °F 5.2 °F 1017.8 in West 7.4 mph 7.4 mph 52 % 0.0 in
22:44 15.0 °F 4.9 °F 1017.8 in West 9.5 mph 9.5 mph 51 % 0.0 in
22:45 15.0 °F 4.9 °F 1017.8 in WSW 9.3 mph 9.3 mph 51 % 0.0 in
22:46 15.0 °F 4.9 °F 1017.8 in West 11.1 mph 11.1 mph 51 % 0.0 in
22:47 15.0 °F 4.9 °F 1017.8 in West 11.1 mph 11.1 mph 51 % 0.0 in
22:48 15.0 °F 4.9 °F 1017.8 in West 9.0 mph 9.0 mph 51 % 0.0 in
22:49 15.0 °F 4.9 °F 1017.8 in ENE 9.3 mph 9.3 mph 51 % 0.0 in
22:50 11.1 °F 2.4 °F 1012.8 in WSW 4.8 mph 6.4 mph 55 % 0.0 in
22:54 15.0 °F 4.9 °F 1017.8 in WNW 9.3 mph 9.3 mph 51 % 0.0 in
22:55 15.0 °F 4.9 °F 1017.8 in WSW 9.3 mph 9.3 mph 51 % 0.0 in
23:00 15.0 °F 4.9 °F 1017.8 in West 8.0 mph 12.9 mph 51 % 0.0 in
23:05 14.9 °F 4.8 °F 1017.8 in WNW 7.4 mph 7.4 mph 51 % 0.0 in
23:06 14.8 °F 4.8 °F 1017.8 in WSW 7.4 mph 7.4 mph 51 % 0.0 in
23:11 14.8 °F 4.8 °F 1017.8 in West 7.4 mph 7.4 mph 51 % 0.0 in
23:16 14.7 °F 4.7 °F 1017.8 in WSW 9.3 mph 9.3 mph 51 % 0.0 in
23:20 11.1 °F 2.4 °F 1013.8 in SW 4.8 mph 4.8 mph 55 % 0.0 in
23:21 14.7 °F 4.7 °F 1017.8 in WSW 9.3 mph 9.3 mph 51 % 0.0 in
23:24 14.6 °F 4.6 °F 1017.8 in West 7.4 mph 7.4 mph 51 % 0.0 in
23:28 14.6 °F 4.6 °F 1017.8 in West 16.7 mph 16.7 mph 51 % 0.0 in
23:30 11.1 °F 2.7 °F 1013.8 in SW 4.8 mph 6.4 mph 56 % 0.0 in
23:34 14.6 °F 4.6 °F 1017.8 in WNW 13.0 mph 13.0 mph 51 % 0.0 in
23:35 14.5 °F 4.5 °F 1017.8 in NNW 9.3 mph 9.3 mph 51 % 0.0 in
23:40 14.4 °F 4.4 °F 1017.8 in West 9.3 mph 9.3 mph 51 % 0.0 in
23:41 14.4 °F 4.4 °F 1017.8 in WSW 9.3 mph 9.3 mph 51 % 0.0 in
23:46 14.4 °F 4.4 °F 1017.8 in West 16.7 mph 16.7 mph 51 % 0.0 in
23:50 10.6 °F 2.2 °F 1012.8 in WSW 4.8 mph 4.8 mph 56 % 0.0 in
23:51 14.4 °F 4.4 °F 1017.8 in WSW 14.8 mph 14.8 mph 51 % 0.0 in
23:55 14.4 °F 4.4 °F 1017.8 in West 5.6 mph 5.6 mph 51 % 0.0 in
Meteo Sesrovires
Elogis d' Weather Underground - 4 mb

Guio original per  Jim McMurry - jmcmurry@mwt.net Adaptat per a la plantilla per  Wim van der Kuil - Leuven-Template.eu

Trobareu la nostra informacio del temps tambe a:

Weather Underground

AWEKAS